Time;durP1;ratioP1;P1;durP2;ratioP2;P2;SDS_P1;SDS_P2;PMS_P1;PMS_P2;Temp;Humidity;BMP_temperature;BMP_pressure;BME280_temperature;BME280_humidity;BME280_pressure;Samples;Min_cycle;Max_cycle;Signal;HPM_P1;HPM_P2
2023/04/09 00:00:25;;;;;;;14.88;11.00;;;;;;;6.07;78.50;94990.47;5018707;28;20315;-77
2023/04/09 00:02:51;;;;;;;14.98;10.93;;;;;;;5.98;78.92;94991.88;5014050;28;20037;-78
2023/04/09 00:05:16;;;;;;;14.48;11.43;;;;;;;5.85;78.94;94991.78;5010792;28;20034;-78
2023/04/09 00:07:41;;;;;;;14.65;11.20;;;;;;;5.93;78.35;94992.16;5022540;28;20040;-78
2023/04/09 00:10:08;;;;;;;14.07;11.25;;;;;;;6.06;77.48;94991.41;5026432;28;20521;-78
2023/04/09 00:12:33;;;;;;;14.13;10.63;;;;;;;5.90;77.70;94987.16;5041698;28;20029;-77
2023/04/09 00:14:58;;;;;;;14.32;9.98;;;;;;;5.80;77.97;95002.38;5026937;28;20040;-77
2023/04/09 00:17:24;;;;;;;13.18;10.13;;;;;;;5.73;78.19;94993.34;5029160;28;20490;-78
2023/04/09 00:19:49;;;;;;;13.32;9.45;;;;;;;5.77;78.22;95000.00;5032545;28;20556;-78
2023/04/09 00:22:15;;;;;;;12.07;8.60;;;;;;;5.78;77.87;94996.47;5008913;28;20520;-77
2023/04/09 00:24:40;;;;;;;13.18;9.55;;;;;;;5.63;77.44;94978.53;5024037;28;20033;-77
2023/04/09 00:27:06;;;;;;;11.88;9.43;;;;;;;5.71;77.31;95004.66;5008951;28;20029;-77
2023/04/09 00:29:31;;;;;;;13.18;9.65;;;;;;;5.49;77.26;94979.34;5046975;28;20095;-77
2023/04/09 00:31:57;;;;;;;12.10;8.93;;;;;;;5.29;77.67;94976.25;5029431;28;20045;-77
2023/04/09 00:34:22;;;;;;;12.45;9.27;;;;;;;5.27;77.79;94985.81;5029157;28;20466;-77
2023/04/09 00:36:48;;;;;;;10.85;8.00;;;;;;;5.40;77.75;95008.25;5029520;28;20116;-77
2023/04/09 00:39:13;;;;;;;13.27;9.43;;;;;;;5.34;77.69;95002.53;5012899;28;20032;-77
2023/04/09 00:41:39;;;;;;;12.88;9.43;;;;;;;5.13;77.68;95001.25;5010989;28;20033;-78
2023/04/09 00:44:04;;;;;;;15.23;10.25;;;;;;;5.13;77.93;95001.25;5027653;28;20037;-77
2023/04/09 00:46:31;;;;;;;14.15;9.90;;;;;;;5.22;76.64;94992.97;5028713;28;20234;-78
2023/04/09 00:48:56;;;;;;;15.23;10.13;;;;;;;5.09;77.03;94997.19;5036347;28;20037;-77
2023/04/09 00:51:22;;;;;;;13.55;9.95;;;;;;;4.74;77.08;94963.22;5046876;28;20445;-77
2023/04/09 00:53:47;;;;;;;12.95;11.10;;;;;;;4.83;77.78;94991.81;5030915;28;20056;-77
2023/04/09 00:56:13;;;;;;;14.98;11.70;;;;;;;4.65;78.37;94998.84;5017145;28;20486;-77
2023/04/09 00:58:39;;;;;;;13.13;10.60;;;;;;;4.55;77.57;94971.13;5017791;28;20036;-77
2023/04/09 01:01:05;;;;;;;13.65;10.35;;;;;;;4.77;77.01;94999.06;5012665;28;20042;-78
2023/04/09 01:03:30;;;;;;;15.15;10.25;;;;;;;4.83;77.14;94996.94;5040613;28;20499;-77
2023/04/09 01:06:00;;;;;;;13.45;10.52;;;;;;;4.90;77.25;94998.28;5017098;28;20090;-77
2023/04/09 01:08:40;;;;;;;13.38;10.57;;;;;;;4.95;77.18;95004.88;5045442;28;20021;-78
2023/04/09 01:11:32;;;;;;;12.93;9.98;;;;;;;4.97;76.92;95011.59;5045278;28;20391;-77
2023/04/09 01:14:23;;;;;;;18.00;10.10;;;;;;;4.87;77.25;95003.56;5043531;28;20126;-77
2023/04/09 01:16:54;;;;;;;14.73;9.45;;;;;;;4.72;76.77;94983.88;5032478;28;20040;-78
2023/04/09 01:19:26;;;;;;;13.77;10.23;;;;;;;4.86;77.17;95006.25;5000903;28;20044;-77
2023/04/09 01:21:52;;;;;;;14.32;9.90;;;;;;;4.64;77.21;94974.00;5050609;28;20104;-78
2023/04/09 01:24:41;;;;;;;13.52;9.52;;;;;;;4.86;77.22;95001.91;5011013;28;20371;-77
2023/04/09 01:27:07;;;;;;;13.10;9.32;;;;;;;4.73;77.01;94977.78;5049996;28;20041;-77
2023/04/09 01:29:38;;;;;;;14.05;10.98;;;;;;;4.77;76.87;94979.28;5029730;28;20045;-78
2023/04/09 01:32:03;;;;;;;;;;;;;;;4.79;76.86;94968.88;5020344;28;20028;-78
2023/04/09 01:34:29;;;;;;;13.60;9.27;;;;;;;4.82;76.31;94982.44;5048844;28;19920;-77
2023/04/09 01:36:56;;;;;;;12.80;9.85;;;;;;;4.84;76.54;95008.06;5050466;28;20048;-77
2023/04/09 01:39:22;;;;;;;15.52;9.93;;;;;;;4.56;76.85;94975.34;5053144;28;20040;-77
2023/04/09 01:41:51;;;;;;;12.70;10.52;;;;;;;4.72;76.81;95001.06;5036514;28;20036;-77
2023/04/09 01:44:17;;;;;;;12.98;10.50;;;;;;;4.32;76.80;94973.25;5036038;28;20063;-77
2023/04/09 01:46:42;;;;;;;14.05;11.18;;;;;;;4.49;76.90;95010.91;5036395;28;20490;-78
2023/04/09 01:49:11;;;;;;;13.93;10.32;;;;;;;4.60;75.45;95012.88;5051119;28;20037;-77
2023/04/09 01:51:37;;;;;;;14.00;9.65;;;;;;;4.46;75.88;94999.03;5052844;28;20116;-77
2023/04/09 01:54:02;;;;;;;14.13;9.52;;;;;;;4.44;76.64;95005.19;5019538;28;20128;-77
2023/04/09 01:56:41;;;;;;;12.27;8.95;;;;;;;4.47;76.66;95012.72;5035878;28;20032;-78
2023/04/09 01:59:08;;;;;;;12.93;9.63;;;;;;;4.44;75.34;95010.31;5052477;28;20111;-78
2023/04/09 02:02:03;;;;;;;11.75;9.23;;;;;;;4.29;76.26;95012.00;5052518;28;20033;-78
2023/04/09 02:04:36;;;;;;;12.73;9.65;;;;;;;3.95;77.01;94988.13;5053198;28;20431;-77
2023/04/09 02:07:34;;;;;;;12.55;9.38;;;;;;;3.95;77.12;95013.00;5036184;28;20033;-78
2023/04/09 02:10:00;;;;;;;13.52;9.73;;;;;;;4.08;76.79;95008.03;5052394;28;20033;-78
2023/04/09 02:12:26;;;;;;;14.65;9.85;;;;;;;3.94;77.27;95011.34;5032569;28;20033;-77
2023/04/09 02:14:51;;;;;;;13.38;9.60;;;;;;;4.03;77.37;95011.66;5031534;28;20494;-78
2023/04/09 02:17:17;;;;;;;13.45;9.98;;;;;;;3.89;77.98;95014.16;5030325;28;20038;-77
2023/04/09 02:19:44;;;;;;;17.10;10.80;;;;;;;3.66;78.85;95009.41;5032022;28;20497;-77
2023/04/09 02:22:09;;;;;;;13.25;9.77;;;;;;;3.57;78.07;94978.16;5027244;28;20053;-77
2023/04/09 02:24:35;;;;;;;13.75;9.95;;;;;;;3.83;77.63;95009.34;5025532;28;20474;-77
2023/04/09 02:27:01;;;;;;;13.63;10.20;;;;;;;3.73;78.33;95010.72;5046109;28;20099;-77
2023/04/09 02:29:27;;;;;;;16.92;11.00;;;;;;;3.59;78.36;94985.75;5012742;28;20038;-77
2023/04/09 02:31:52;;;;;;;15.40;10.10;;;;;;;3.71;78.22;94992.84;5041241;28;20467;-77
2023/04/09 02:34:19;;;;;;;14.50;10.90;;;;;;;3.55;78.07;94959.41;5046593;28;20021;-77
2023/04/09 02:36:44;;;;;;;15.98;11.57;;;;;;;3.80;78.68;95009.50;5015742;28;20113;-77
2023/04/09 02:39:10;;;;;;;16.55;11.13;;;;;;;3.74;79.08;95009.84;5031696;28;20033;-77
2023/04/09 02:41:35;;;;;;;17.17;11.25;;;;;;;3.71;78.96;94974.03;5030367;28;20038;-78
2023/04/09 02:44:00;;;;;;;14.35;10.93;;;;;;;3.88;78.81;94999.66;5009903;28;20041;-77
2023/04/09 02:46:27;;;;;;;15.50;11.32;;;;;;;3.96;78.60;95001.81;5048636;28;20306;-77
2023/04/09 02:48:54;;;;;;;17.08;12.35;;;;;;;3.84;79.13;94984.47;5016317;28;20038;-77
2023/04/09 02:51:19;;;;;;;21.27;13.55;;;;;;;3.96;79.51;94994.09;5043034;28;20061;-77
2023/04/09 02:53:45;;;;;;;19.45;14.32;;;;;;;3.94;79.85;94981.31;5016338;28;20087;-77
2023/04/09 02:56:11;;;;;;;19.52;13.38;;;;;;;4.06;79.52;94997.00;5030432;28;20037;-77
2023/04/09 02:58:36;;;;;;;25.25;15.00;;;;;;;4.07;79.87;94993.50;5017612;28;20513;-77
2023/04/09 03:01:01;;;;;;;16.35;12.57;;;;;;;4.01;79.57;94992.94;5017995;28;20542;-77
2023/04/09 03:03:27;;;;;;;16.80;12.07;;;;;;;3.80;78.93;94955.53;5048754;28;20557;-77
2023/04/09 03:05:53;;;;;;;15.73;10.48;;;;;;;4.07;78.66;94996.94;5020735;28;20044;-77
2023/04/09 03:08:18;;;;;;;15.82;10.48;;;;;;;4.05;78.32;94998.75;5050453;28;20414;-77
2023/04/09 03:10:44;;;;;;;16.77;11.50;;;;;;;4.03;78.57;94988.53;5028482;28;20046;-78
2023/04/09 03:13:09;;;;;;;14.65;10.95;;;;;;;3.69;78.66;94945.00;5048062;28;20036;-77
2023/04/09 03:15:35;;;;;;;16.25;11.50;;;;;;;3.96;78.88;94997.50;5049749;28;20086;-77
2023/04/09 03:18:00;;;;;;;14.57;11.02;;;;;;;3.78;78.64;94960.75;5028876;28;20435;-77
2023/04/09 03:20:26;;;;;;;16.50;12.48;;;;;;;3.95;78.44;94993.25;5020052;28;20056;-78
2023/04/09 03:22:51;;;;;;;17.35;13.02;;;;;;;3.81;78.90;94963.16;5045604;28;20033;-77
2023/04/09 03:25:19;;;;;;;15.25;12.07;;;;;;;3.85;78.95;94968.97;5050563;28;20032;-77
2023/04/09 03:27:45;;;;;;;14.48;11.35;;;;;;;4.11;79.16;94995.00;5032252;28;20526;-77
2023/04/09 03:30:10;;;;;;;14.38;11.07;;;;;;;3.66;79.40;94934.91;5049241;28;20068;-78
2023/04/09 03:32:36;;;;;;;15.48;11.68;;;;;;;4.21;79.33;94993.59;5028508;28;20037;-78
2023/04/09 03:35:01;;;;;;;15.10;11.52;;;;;;;4.00;79.86;94967.31;5012501;28;20034;-77
2023/04/09 03:37:27;;;;;;;14.98;11.50;;;;;;;4.31;79.58;94999.06;5029648;28;20033;-77
2023/04/09 03:39:52;;;;;;;16.55;12.32;;;;;;;4.27;79.66;94995.84;5012893;28;20033;-77
2023/04/09 03:42:18;;;;;;;16.63;12.55;;;;;;;4.31;79.31;94992.16;5038352;28;20470;-77
2023/04/09 03:44:43;;;;;;;17.77;13.25;;;;;;;4.29;78.89;95011.16;5032507;28;20075;-77
2023/04/09 03:47:09;;;;;;;19.73;14.95;;;;;;;4.27;79.08;95010.44;5033057;28;20032;-78
2023/04/09 03:49:35;;;;;;;19.02;14.60;;;;;;;4.08;79.21;94977.19;5049023;28;20033;-77
2023/04/09 03:52:00;;;;;;;29.55;23.02;;;;;;;4.32;78.90;95011.84;5050241;28;20482;-77
2023/04/09 03:54:29;;;;;;;37.20;28.58;;;;;;;4.24;78.42;94989.09;5016984;28;20033;-78
2023/04/09 03:56:55;;;;;;;23.45;17.83;;;;;;;4.15;78.74;94973.34;5029706;28;20514;-77
2023/04/09 03:59:21;;;;;;;17.40;12.68;;;;;;;4.02;78.73;94958.59;5030388;28;20054;-77
2023/04/09 04:01:47;;;;;;;15.27;10.90;;;;;;;4.31;79.53;95014.50;5014064;28;20490;-77
2023/04/09 04:04:12;;;;;;;15.90;11.65;;;;;;;4.39;79.50;95005.44;5049308;28;20033;-77
2023/04/09 04:06:38;;;;;;;15.23;10.48;;;;;;;4.38;79.89;95002.97;5032772;28;20021;-77
2023/04/09 04:09:03;;;;;;;16.92;11.57;;;;;;;4.43;80.17;95013.78;5033659;28;20064;-77
2023/04/09 04:11:29;;;;;;;18.40;12.32;;;;;;;4.40;80.20;94994.25;5037051;28;20052;-77
2023/04/09 04:13:54;;;;;;;23.45;15.80;;;;;;;4.54;79.83;95000.34;5028134;28;20132;-77
2023/04/09 04:16:20;;;;;;;23.63;15.95;;;;;;;4.32;79.23;94973.25;5023204;28;20029;-77
2023/04/09 04:18:45;;;;;;;22.05;14.85;;;;;;;4.52;79.23;94995.28;5013174;28;20033;-77
2023/04/09 04:21:12;;;;;;;21.35;14.73;;;;;;;4.76;79.12;95010.25;5026092;28;20036;-77
2023/04/09 04:23:38;;;;;;;20.23;13.88;;;;;;;4.51;79.50;94970.47;5033096;28;20023;-77
2023/04/09 04:26:10;;;;;;;19.33;13.02;;;;;;;4.81;78.77;95011.66;5049696;28;20025;-77
2023/04/09 04:28:38;;;;;;;19.00;12.52;;;;;;;4.95;78.66;95012.63;5046380;28;20108;-77
2023/04/09 04:31:09;;;;;;;18.23;12.27;;;;;;;4.90;79.24;95003.41;5016687;28;20406;-77
2023/04/09 04:33:35;;;;;;;17.40;11.95;;;;;;;4.86;78.35;94990.81;5033117;28;20472;-77
2023/04/09 04:36:07;;;;;;;20.77;12.57;;;;;;;5.17;77.91;95009.63;5016458;28;20041;-77
2023/04/09 04:38:33;;;;;;;16.33;11.63;;;;;;;5.24;77.64;95008.34;5048000;28;20036;-77
2023/04/09 04:40:59;;;;;;;19.80;13.45;;;;;;;5.42;77.10;95014.97;5013092;28;20116;-78
2023/04/09 04:43:24;;;;;;;18.50;10.88;;;;;;;5.53;76.23;95014.34;4996974;28;20029;-77
2023/04/09 04:45:50;;;;;;;16.52;11.30;;;;;;;5.56;75.80;95009.00;5013338;28;20029;-78
2023/04/09 04:48:16;;;;;;;15.63;10.90;;;;;;;5.61;75.45;95017.28;5011019;28;20028;-78
2023/04/09 04:50:41;;;;;;;21.52;13.82;;;;;;;5.43;75.73;94990.88;5046167;28;20043;-78
2023/04/09 04:53:06;;;;;;;20.17;13.20;;;;;;;5.72;75.67;95001.19;5039452;28;20025;-78
2023/04/09 04:55:35;;;;;;;22.38;15.40;;;;;;;5.90;75.49;95020.69;5037411;28;20123;-77
2023/04/09 04:58:00;;;;;;;48.45;25.08;;;;;;;5.82;75.68;95008.28;5039915;28;20025;-77
2023/04/09 05:00:26;;;;;;;51.63;25.42;;;;;;;6.02;75.12;95029.47;5041680;28;20435;-77
2023/04/09 05:02:54;;;;;;;24.92;14.48;;;;;;;6.15;73.37;95025.19;5003600;28;20025;-76
2023/04/09 05:05:19;;;;;;;23.98;14.57;;;;;;;6.13;72.97;95031.34;5023663;28;20414;-76
2023/04/09 05:07:48;;;;;;;20.90;13.38;;;;;;;6.30;73.24;95032.91;5027328;28;20030;-77
2023/04/09 05:10:13;;;;;;;21.33;13.63;;;;;;;6.47;73.41;95040.44;5016848;28;20099;-76
2023/04/09 05:12:39;;;;;;;21.45;13.57;;;;;;;6.09;73.70;94973.16;5038971;28;20487;-77
2023/04/09 05:15:05;;;;;;;18.40;12.18;;;;;;;6.48;73.56;95021.41;5022810;28;20415;-77
2023/04/09 05:17:31;;;;;;;20.02;13.32;;;;;;;6.67;73.55;95034.81;5010816;28;20029;-77
2023/04/09 05:19:59;;;;;;;21.48;14.65;;;;;;;6.91;72.21;95035.00;5017689;28;20049;-77
2023/04/09 05:22:24;;;;;;;20.95;14.50;;;;;;;7.00;71.72;95038.75;5013331;28;20029;-77
2023/04/09 05:24:50;;;;;;;20.70;14.48;;;;;;;7.15;70.10;95032.56;5042352;28;20114;-77
2023/04/09 05:27:18;;;;;;;20.63;14.10;;;;;;;7.15;71.14;95035.13;5047417;28;20025;-78
2023/04/09 05:29:43;;;;;;;23.02;15.95;;;;;;;7.00;70.49;95020.66;5029282;28;20044;-77
2023/04/09 05:32:09;;;;;;;16.92;11.02;;;;;;;6.90;69.81;94994.59;5035471;28;20483;-78
2023/04/09 05:34:35;;;;;;;17.05;9.98;;;;;;;7.19;68.48;95028.03;4997033;28;20061;-78
2023/04/09 05:37:00;;;;;;;20.17;12.07;;;;;;;7.18;68.91;95030.69;5026651;28;20026;-78
2023/04/09 05:39:26;;;;;;;15.02;9.93;;;;;;;7.28;68.69;95029.19;4996621;28;20041;-78
2023/04/09 05:41:51;;;;;;;17.20;11.20;;;;;;;7.22;68.84;95025.25;5040923;28;20033;-78
2023/04/09 05:44:17;;;;;;;20.23;11.73;;;;;;;7.21;69.48;95020.16;5007432;28;20045;-78
2023/04/09 05:46:42;;;;;;;21.98;12.32;;;;;;;7.18;69.47;95007.44;5042465;28;20221;-78
2023/04/09 05:49:08;;;;;;;15.00;10.48;;;;;;;7.43;67.32;95030.72;5004360;28;20493;-78
2023/04/09 05:51:33;;;;;;;15.88;10.52;;;;;;;7.44;66.94;95037.56;5046622;28;20064;-82
2023/04/09 05:53:59;;;;;;;22.05;14.68;;;;;;;7.27;68.36;95005.09;5046114;28;20037;-79
2023/04/09 05:56:26;;;;;;;26.83;17.33;;;;;;;7.41;68.82;95019.69;5044524;28;20063;-79
2023/04/09 05:58:52;;;;;;;23.13;15.45;;;;;;;7.26;68.91;95011.19;5027450;28;20745;-79
2023/04/09 06:01:18;;;;;;;22.42;14.40;;;;;;;7.47;69.21;95037.34;5043732;28;20099;-79
2023/04/09 06:03:43;;;;;;;22.30;13.68;;;;;;;7.44;68.66;95022.06;5009246;28;20042;-79
2023/04/09 06:06:09;;;;;;;18.55;12.45;;;;;;;7.59;67.79;95041.69;5030834;28;20025;-79
2023/04/09 06:08:34;;;;;;;18.98;12.45;;;;;;;7.59;67.54;95033.94;5047665;28;20021;-79
2023/04/09 06:11:00;;;;;;;19.42;12.13;;;;;;;7.62;66.57;95035.50;5051574;28;20056;-80
2023/04/09 06:13:26;;;;;;;22.65;13.55;;;;;;;7.62;66.90;95040.66;5044931;28;20021;-77
2023/04/09 06:15:52;;;;;;;18.25;12.48;;;;;;;7.71;66.69;95029.69;5051408;28;20032;-77
2023/04/09 06:18:18;;;;;;;20.00;12.40;;;;;;;7.93;65.85;95041.97;5032491;28;20021;-78
2023/04/09 06:20:43;;;;;;;18.98;12.52;;;;;;;8.12;65.46;95044.13;5048700;28;20094;-78
2023/04/09 06:23:10;;;;;;;13.02;9.40;;;;;;;8.15;64.89;95019.81;5047276;28;20082;-78
2023/04/09 06:25:35;;;;;;;16.63;10.18;;;;;;;8.50;64.70;95033.72;5030744;28;20043;-81
2023/04/09 06:28:01;;;;;;;14.25;8.90;;;;;;;8.68;62.65;95034.16;5030298;28;20037;-80
2023/04/09 06:30:27;;;;;;;13.88;9.38;;;;;;;8.24;63.19;94977.75;5041590;28;20033;-81
2023/04/09 06:32:53;;;;;;;14.77;8.90;;;;;;;8.55;62.30;95015.25;5015803;28;20037;-81
2023/04/09 06:35:18;;;;;;;12.23;8.68;;;;;;;8.27;62.22;95031.88;5022001;28;20499;-76
2023/04/09 06:37:44;;;;;;;13.55;10.32;;;;;;;8.28;62.59;95024.00;5009511;28;20522;-79
2023/04/09 06:40:10;;;;;;;12.68;9.07;;;;;;;8.44;62.07;95033.31;5038999;28;20558;-79
2023/04/09 06:42:36;;;;;;;14.10;10.27;;;;;;;8.34;62.67;95002.03;5029945;28;20025;-79
2023/04/09 06:45:07;;;;;;;10.57;7.95;;;;;;;8.50;61.44;95025.94;5021888;28;20036;-79
2023/04/09 06:47:33;;;;;;;10.32;6.90;;;;;;;8.51;61.07;95019.00;5014875;28;20553;-79
2023/04/09 06:49:58;;;;;;;12.07;8.13;;;;;;;8.68;60.88;95035.91;5040718;28;20041;-79
2023/04/09 06:52:24;;;;;;;10.18;7.68;;;;;;;8.77;60.31;95049.97;5020542;28;20044;-78
2023/04/09 06:54:50;;;;;;;11.45;7.75;;;;;;;8.47;60.37;95041.69;5032796;28;20057;-79
2023/04/09 06:57:16;;;;;;;10.88;7.45;;;;;;;8.76;60.41;95049.16;5026416;28;20025;-79
2023/04/09 06:59:41;;;;;;;11.02;7.35;;;;;;;8.83;59.12;95060.72;5011658;28;20120;-77
2023/04/09 07:02:07;;;;;;;8.20;6.45;;;;;;;8.73;59.13;95049.38;5046780;28;20434;-77
2023/04/09 07:04:32;;;;;;;10.38;7.50;;;;;;;8.81;59.52;95052.22;5030549;28;20064;-77
2023/04/09 07:06:58;;;;;;;9.82;7.32;;;;;;;8.75;60.03;95044.91;5026268;28;20028;-78
2023/04/09 07:09:24;;;;;;;11.07;8.13;;;;;;;8.76;61.08;95043.97;5030956;28;20107;-78
2023/04/09 07:11:50;;;;;;;11.32;8.40;;;;;;;8.76;60.25;95062.09;5034928;28;20043;-78
2023/04/09 07:14:15;;;;;;;9.35;7.25;;;;;;;8.47;59.72;95067.59;5028985;28;20021;-78
2023/04/09 07:16:41;;;;;;;9.27;7.20;;;;;;;8.45;59.50;95051.31;5014108;28;20128;-78
2023/04/09 07:19:07;;;;;;;9.98;7.00;;;;;;;8.45;59.70;95061.69;5041402;28;20104;-77
2023/04/09 07:21:32;;;;;;;11.65;7.25;;;;;;;8.57;60.19;95069.53;5047614;28;20034;-78
2023/04/09 07:23:58;;;;;;;11.30;8.13;;;;;;;8.62;60.23;95067.44;5014106;28;20032;-78
2023/04/09 07:26:23;;;;;;;11.82;8.02;;;;;;;8.31;59.54;95053.22;5021622;28;20036;-78
2023/04/09 07:28:49;;;;;;;12.02;7.60;;;;;;;8.29;60.36;95072.25;5024828;28;20037;-78
2023/04/09 07:31:15;;;;;;;12.65;8.85;;;;;;;8.20;60.60;95079.84;5003264;28;20033;-78
2023/04/09 07:33:40;;;;;;;12.02;8.40;;;;;;;7.93;60.93;95054.91;5033740;28;20036;-79
2023/04/09 07:36:06;;;;;;;12.30;8.88;;;;;;;8.04;60.61;95080.88;5013037;28;20034;-78
2023/04/09 07:38:32;;;;;;;13.95;9.77;;;;;;;8.11;61.01;95083.03;5043801;28;20036;-78
2023/04/09 07:40:57;;;;;;;12.27;8.10;;;;;;;7.89;60.87;95087.13;5029467;28;20037;-78
2023/04/09 07:43:23;;;;;;;12.68;8.35;;;;;;;8.13;60.42;95086.34;5024475;28;20025;-79
2023/04/09 07:45:50;;;;;;;12.40;8.48;;;;;;;8.10;61.41;95076.22;5027197;28;20025;-79
2023/04/09 07:48:16;;;;;;;10.25;7.10;;;;;;;8.08;60.88;95081.53;5020169;28;20035;-79
2023/04/09 07:50:42;;;;;;;10.70;7.90;;;;;;;8.10;60.84;95089.16;5048080;28;20102;-79
2023/04/09 07:53:07;;;;;;;10.57;7.90;;;;;;;7.90;60.90;95062.88;5013671;28;20037;-79
2023/04/09 07:55:33;;;;;;;13.73;9.55;;;;;;;7.95;61.13;95060.81;5044278;28;20037;-79
2023/04/09 07:57:58;;;;;;;11.63;8.00;;;;;;;8.25;60.69;95088.13;5014676;28;20032;-79
2023/04/09 08:00:24;;;;;;;13.23;8.48;;;;;;;8.03;61.27;95078.41;5004002;28;20053;-79
2023/04/09 08:02:49;;;;;;;12.88;8.88;;;;;;;8.14;60.55;95082.84;5028560;28;20502;-79
2023/04/09 08:05:15;;;;;;;13.52;8.95;;;;;;;7.91;60.83;95095.59;5042809;28;20041;-79
2023/04/09 08:07:40;;;;;;;11.60;8.75;;;;;;;7.97;61.13;95092.59;5037005;28;20029;-80
2023/04/09 08:10:07;;;;;;;13.20;8.73;;;;;;;8.09;60.50;95097.88;5006241;28;20041;-81
2023/04/09 08:12:32;;;;;;;11.93;8.85;;;;;;;7.96;61.17;95088.34;5009995;28;20049;-79
2023/04/09 08:14:58;;;;;;;13.13;8.82;;;;;;;8.01;61.37;95083.69;5022680;28;20040;-78
2023/04/09 08:17:23;;;;;;;13.02;8.80;;;;;;;8.16;61.41;95109.44;5034679;28;20033;-80
2023/04/09 08:19:49;;;;;;;12.18;8.82;;;;;;;8.11;61.09;95108.91;5048400;28;20040;-79
2023/04/09 08:22:15;;;;;;;13.13;9.68;;;;;;;7.88;61.28;95100.97;5040611;28;20028;-80
2023/04/09 08:24:42;;;;;;;14.57;9.70;;;;;;;7.82;62.33;95106.56;5045529;28;20037;-78
2023/04/09 08:27:08;;;;;;;13.70;8.88;;;;;;;7.59;62.40;95088.22;5013565;28;20051;-78
2023/04/09 08:29:33;;;;;;;13.90;9.88;;;;;;;7.67;63.71;95102.41;5008360;28;20029;-81
2023/04/09 08:31:59;;;;;;;15.27;9.90;;;;;;;7.86;62.60;95114.94;5027634;28;20466;-78
2023/04/09 08:34:24;;;;;;;14.55;9.80;;;;;;;7.69;62.56;95103.97;5028170;28;20041;-78
2023/04/09 08:36:50;;;;;;;15.38;9.40;;;;;;;7.89;62.43;95105.22;5029348;28;20028;-78
2023/04/09 08:39:18;;;;;;;14.38;9.10;;;;;;;7.28;63.62;95089.44;5020616;28;20056;-78
2023/04/09 08:41:44;;;;;;;15.65;9.63;;;;;;;7.48;64.11;95108.81;5021757;28;20025;-78
2023/04/09 08:44:10;;;;;;;15.13;10.32;;;;;;;7.59;63.58;95102.91;5031785;28;20033;-78
2023/04/09 08:46:36;;;;;;;13.50;9.38;;;;;;;7.78;63.71;95103.34;5016081;28;20018;-78
2023/04/09 08:49:01;;;;;;;13.00;9.52;;;;;;;7.90;63.20;95098.28;5027856;28;20056;-78
2023/04/09 08:51:27;;;;;;;13.77;8.75;;;;;;;7.70;62.54;95077.19;5027208;28;20037;-78
2023/04/09 08:53:59;;;;;;;15.93;9.98;;;;;;;7.94;63.58;95091.94;4996866;28;20507;-78
2023/04/09 08:56:25;;;;;;;14.73;9.70;;;;;;;8.04;62.57;95078.28;5015972;28;20104;-78
2023/04/09 08:58:51;;;;;;;15.48;9.88;;;;;;;8.20;62.73;95088.44;5011275;28;20041;-78
2023/04/09 09:01:23;;;;;;;12.63;8.70;;;;;;;8.16;61.83;95070.63;5045163;28;20021;-78
2023/04/09 09:04:03;;;;;;;12.77;9.25;;;;;;;8.40;61.59;95083.66;5035655;28;20037;-78
2023/04/09 09:06:32;;;;;;;11.13;8.48;;;;;;;8.37;60.74;95063.94;5032244;28;20495;-78
2023/04/09 09:09:08;;;;;;;13.35;9.77;;;;;;;8.64;61.04;95078.53;5013186;28;20067;-79
2023/04/09 09:11:36;;;;;;;13.20;9.30;;;;;;;8.74;60.04;95076.91;5045783;28;21372;-78
2023/04/09 09:14:03;;;;;;;13.00;8.88;;;;;;;8.72;59.48;95076.22;5026773;28;20021;-78
2023/04/09 09:16:30;;;;;;;12.70;8.57;;;;;;;8.67;59.98;95060.19;5033705;28;20026;-78
2023/04/09 09:18:55;;;;;;;13.43;9.65;;;;;;;8.65;60.12;95025.78;5034618;28;20379;-78
2023/04/09 09:21:21;;;;;;;14.00;9.57;;;;;;;8.90;60.18;95055.94;5009983;28;20044;-79
2023/04/09 09:23:49;;;;;;;15.63;10.32;;;;;;;9.08;59.94;95069.28;5021730;28;20029;-80
2023/04/09 09:26:16;;;;;;;13.18;9.55;;;;;;;9.28;58.89;95070.47;5009128;28;20038;-80
2023/04/09 09:28:42;;;;;;;12.55;8.70;;;;;;;9.32;58.16;95067.50;5027687;28;20159;-80
2023/04/09 09:31:08;;;;;;;9.93;7.80;;;;;;;9.28;57.97;95058.31;5002715;28;20029;-80
2023/04/09 09:33:34;;;;;;;10.95;8.35;;;;;;;9.13;56.88;95059.44;5033976;28;20029;-80
2023/04/09 09:36:02;;;;;;;10.80;7.57;;;;;;;9.35;56.41;95058.69;5036546;28;20039;-80
2023/04/09 09:38:28;;;;;;;9.45;7.70;;;;;;;9.32;56.09;95030.38;5058693;28;20522;-80
2023/04/09 09:40:53;;;;;;;12.27;7.88;;;;;;;9.57;56.62;95050.94;5024407;28;20056;-79
2023/04/09 09:43:19;;;;;;;11.32;8.45;;;;;;;9.85;57.15;95048.88;5029281;28;20070;-80
2023/04/09 09:45:45;;;;;;;12.18;9.00;;;;;;;9.91;57.17;95019.03;5038403;28;20418;-80
2023/04/09 09:48:11;;;;;;;13.07;9.27;;;;;;;10.19;56.16;95028.91;5031321;28;20041;-79
2023/04/09 09:50:38;;;;;;;10.60;7.60;;;;;;;10.27;53.19;95038.75;5044259;28;20542;-78
2023/04/09 09:53:04;;;;;;;11.02;7.75;;;;;;;10.33;54.10;95034.84;5040101;28;20063;-78
2023/04/09 09:55:31;;;;;;;12.10;8.57;;;;;;;10.47;54.13;95039.78;5027158;28;20061;-78
2023/04/09 09:58:01;;;;;;;14.23;9.82;;;;;;;10.82;54.10;95033.56;5034664;28;20043;-79
2023/04/09 10:00:26;;;;;;;11.15;8.20;;;;;;;10.74;53.59;95011.59;5053622;28;20049;-79
2023/04/09 10:02:56;;;;;;;10.65;7.93;;;;;;;10.84;53.52;94990.91;5049790;28;20110;-79
2023/04/09 10:05:25;;;;;;;12.07;9.23;;;;;;;11.01;53.07;95025.94;5033473;28;20032;-79
2023/04/09 10:07:54;;;;;;;12.50;9.70;;;;;;;11.22;52.31;95006.91;5036089;28;20021;-79
2023/04/09 10:10:20;;;;;;;10.93;8.93;;;;;;;11.24;52.50;95012.81;5039774;28;20033;-79
2023/04/09 10:12:46;;;;;;;10.93;8.48;;;;;;;11.16;51.62;95016.06;5027904;28;20079;-78
2023/04/09 10:15:11;;;;;;;13.13;9.43;;;;;;;11.28;52.18;95009.84;5047318;28;20441;-79
2023/04/09 10:17:37;;;;;;;10.23;8.13;;;;;;;11.41;50.82;95002.66;5027195;28;20029;-79
2023/04/09 10:20:18;;;;;;;11.38;9.23;;;;;;;11.49;51.28;94998.63;5047482;28;20040;-79
2023/04/09 10:22:47;;;;;;;13.18;9.60;;;;;;;11.60;51.31;94996.75;5029959;28;20557;-79
2023/04/09 10:25:13;;;;;;;11.30;8.38;;;;;;;11.62;51.24;94994.03;5012989;28;20033;-78
2023/04/09 10:27:38;;;;;;;10.48;8.52;;;;;;;11.66;49.94;94984.19;5012961;28;20094;-79
2023/04/09 10:30:09;;;;;;;9.57;7.57;;;;;;;11.74;50.17;94990.41;5045955;28;20033;-78
2023/04/09 10:32:34;;;;;;;13.88;9.95;;;;;;;11.76;50.29;94991.09;5047116;28;20029;-79
2023/04/09 10:35:01;;;;;;;14.80;10.52;;;;;;;11.75;50.38;94949.56;5012273;28;20060;-79
2023/04/09 10:37:27;;;;;;;13.25;10.27;;;;;;;11.70;50.10;94928.31;5002582;28;20033;-80
2023/04/09 10:39:53;;;;;;;11.02;8.55;;;;;;;11.96;48.63;94966.00;5047865;28;20037;-80
2023/04/09 10:42:23;;;;;;;8.95;6.90;;;;;;;11.86;48.42;94972.94;5013579;28;20108;-79
2023/04/09 10:45:08;;;;;;;9.75;7.55;;;;;;;11.50;49.76;94969.84;5025337;28;20124;-80
2023/04/09 10:47:41;;;;;;;11.93;8.10;;;;;;;11.40;50.15;94949.00;5044768;28;20041;-80
2023/04/09 10:50:20;;;;;;;13.88;8.57;;;;;;;11.48;49.87;94978.75;5013501;28;20055;-81
2023/04/09 10:52:46;;;;;;;10.68;8.38;;;;;;;11.16;50.60;94970.06;5029767;28;20063;-81
2023/04/09 10:55:48;;;;;;;13.70;8.48;;;;;;;11.45;50.25;94964.25;5002902;28;20057;-80
2023/04/09 10:58:14;;;;;;;12.68;8.73;;;;;;;11.31;49.67;94951.53;4994335;28;20040;-81
2023/04/09 11:00:44;;;;;;;11.90;7.45;;;;;;;11.38;50.13;94952.69;5031235;28;20045;-80
2023/04/09 11:03:18;;;;;;;9.32;7.50;;;;;;;11.39;49.49;94939.56;5045239;28;20025;-80
2023/04/09 11:05:43;;;;;;;11.35;8.30;;;;;;;11.60;50.19;94956.91;5010430;28;20037;-81
2023/04/09 11:08:10;;;;;;;12.13;7.10;;;;;;;11.52;48.12;94928.13;5046589;28;20040;-81
2023/04/09 11:10:36;;;;;;;8.65;7.00;;;;;;;11.45;47.96;94908.75;5002159;28;20120;-80
2023/04/09 11:13:02;;;;;;;9.32;7.30;;;;;;;11.74;47.32;94933.13;5045264;28;20116;-81
2023/04/09 11:15:28;;;;;;;9.40;7.95;;;;;;;11.75;48.95;94939.16;5043407;28;20146;-79
2023/04/09 11:17:53;;;;;;;9.02;7.38;;;;;;;11.77;47.26;94909.44;5015898;28;20423;-80
2023/04/09 11:20:20;;;;;;;8.30;6.55;;;;;;;12.02;46.05;94930.81;5011824;28;20068;-80
2023/04/09 11:22:46;;;;;;;9.70;7.28;;;;;;;12.09;45.84;94931.94;5025533;28;20545;-79
2023/04/09 11:25:21;;;;;;;7.90;6.70;;;;;;;12.11;44.75;94942.19;5044297;28;20130;-80
2023/04/09 11:27:47;;;;;;;8.45;6.97;;;;;;;12.25;44.52;94937.41;5024608;28;20487;-80